createdAt,value
2017-09-20T00:01:35.100Z,99.90
2017-09-20T00:04:02.603Z,99.90
2017-09-20T00:06:31.704Z,99.60
2017-09-20T00:08:59.207Z,99.20
2017-09-20T00:11:26.727Z,99.10
2017-09-20T00:13:54.256Z,99.20
2017-09-20T00:16:22.816Z,99.20
2017-09-20T00:18:51.155Z,99.30
2017-09-20T00:21:20.155Z,99.20
2017-09-20T00:23:48.432Z,99.30
2017-09-20T00:26:16.720Z,99.30
2017-09-20T00:28:44.947Z,99.30
2017-09-20T00:31:13.216Z,99.50
2017-09-20T00:33:40.735Z,99.70
2017-09-20T00:36:08.244Z,99.70
2017-09-20T00:38:35.763Z,99.80
2017-09-20T00:41:03.266Z,99.70
2017-09-20T00:43:30.787Z,99.90
2017-09-20T00:45:58.292Z,99.90
2017-09-20T00:48:26.087Z,99.90
2017-09-20T00:50:53.596Z,99.80
2017-09-20T00:53:21.112Z,99.90
2017-09-20T00:55:48.635Z,99.90
2017-09-20T00:58:16.963Z,99.90
2017-09-20T01:00:44.579Z,99.90
2017-09-20T01:03:13.784Z,99.90
2017-09-20T01:05:42.051Z,99.90
2017-09-20T01:08:10.339Z,99.90
2017-09-20T01:10:38.607Z,99.90
2017-09-20T01:13:06.907Z,99.90
2017-09-20T01:15:34.459Z,99.90
2017-09-20T01:18:01.968Z,99.90
2017-09-20T01:20:41.555Z,99.90
2017-09-20T01:23:20.904Z,99.90
2017-09-20T01:25:48.427Z,99.90
2017-09-20T01:28:16.694Z,99.90
2017-09-20T01:30:44.212Z,99.90
2017-09-20T01:33:11.720Z,99.90
2017-09-20T01:35:40.023Z,99.90
2017-09-20T01:38:07.638Z,99.90
2017-09-20T01:40:35.157Z,99.90
2017-09-20T01:43:02.751Z,99.90
2017-09-20T01:45:31.016Z,99.90
2017-09-20T01:47:58.636Z,99.90
2017-09-20T01:50:26.916Z,99.90
2017-09-20T01:52:54.414Z,99.90
2017-09-20T01:55:21.936Z,99.90
2017-09-20T01:57:49.439Z,99.90
2017-09-20T02:00:17.143Z,99.90
2017-09-20T02:02:44.648Z,99.90
2017-09-20T02:05:12.884Z,99.90
2017-09-20T02:07:40.436Z,99.90
2017-09-20T02:10:07.955Z,99.90
2017-09-20T02:12:35.559Z,99.90
2017-09-20T02:15:03.215Z,99.90
2017-09-20T02:17:31.567Z,99.90
2017-09-20T02:19:59.873Z,99.90
2017-09-20T02:22:27.423Z,99.90
2017-09-20T02:24:54.926Z,99.90
2017-09-20T02:27:22.443Z,99.90
2017-09-20T02:29:49.948Z,99.90
2017-09-20T02:32:18.364Z,99.90
2017-09-20T02:34:46.755Z,99.90
2017-09-20T02:37:14.275Z,99.90
2017-09-20T02:39:41.862Z,99.90
2017-09-20T02:42:10.762Z,99.90
2017-09-20T02:44:38.337Z,99.90
2017-09-20T02:47:05.883Z,99.90
2017-09-20T02:49:33.393Z,99.90
2017-09-20T02:52:01.558Z,99.90
2017-09-20T02:54:29.055Z,99.90
2017-09-20T02:56:57.550Z,99.90
2017-09-20T02:59:25.055Z,99.90
2017-09-20T03:01:52.671Z,99.90
2017-09-20T03:04:20.179Z,99.90
2017-09-20T03:06:47.678Z,99.90
2017-09-20T03:09:15.199Z,99.90
2017-09-20T03:11:42.707Z,99.90
2017-09-20T03:14:10.227Z,99.90
2017-09-20T03:16:37.733Z,99.90
2017-09-20T03:19:05.253Z,99.90
2017-09-20T03:21:33.556Z,99.90
2017-09-20T03:24:01.070Z,99.90
2017-09-20T03:26:28.571Z,99.90
2017-09-20T03:28:56.126Z,99.90
2017-09-20T03:31:23.722Z,99.90
2017-09-20T03:33:51.253Z,99.90
2017-09-20T03:36:18.817Z,99.90
2017-09-20T03:38:46.339Z,99.90
2017-09-20T03:41:14.639Z,99.90
2017-09-20T03:43:42.199Z,99.90
2017-09-20T03:46:09.796Z,99.90
2017-09-20T03:48:37.299Z,99.90
2017-09-20T03:51:05.591Z,99.90
2017-09-20T03:53:33.091Z,99.90
2017-09-20T03:56:00.616Z,99.90
2017-09-20T03:58:28.875Z,99.90
2017-09-20T04:00:57.164Z,99.90
2017-09-20T04:03:24.667Z,99.90
2017-09-20T04:05:52.190Z,99.90
2017-09-20T04:08:19.792Z,99.90
2017-09-20T04:10:48.111Z,99.90
2017-09-20T04:13:15.629Z,99.90
2017-09-20T04:15:43.150Z,99.90
2017-09-20T04:18:10.647Z,99.90
2017-09-20T04:20:38.176Z,99.90
2017-09-20T04:23:05.680Z,99.90
2017-09-20T04:25:33.971Z,99.90
2017-09-20T04:28:01.595Z,99.90
2017-09-20T04:30:29.115Z,99.90
2017-09-20T04:32:56.620Z,99.90
2017-09-20T04:35:24.315Z,99.90
2017-09-20T04:37:51.847Z,99.90
2017-09-20T04:40:20.119Z,99.90
2017-09-20T04:42:47.643Z,99.90
2017-09-20T04:45:15.155Z,99.90
2017-09-20T04:47:43.552Z,99.90
2017-09-20T04:50:11.102Z,99.90
2017-09-20T04:52:38.677Z,99.90
2017-09-20T04:55:06.187Z,99.90
2017-09-20T04:57:34.479Z,99.90
2017-09-20T05:00:02.751Z,99.90
2017-09-20T05:02:31.150Z,99.90
2017-09-20T05:04:58.707Z,99.90
2017-09-20T05:07:26.235Z,99.90
2017-09-20T05:09:54.508Z,99.90
2017-09-20T05:12:22.022Z,99.90
2017-09-20T05:14:49.534Z,99.90
2017-09-20T05:17:17.811Z,99.90
2017-09-20T05:19:46.099Z,99.90
2017-09-20T05:22:13.607Z,99.90
2017-09-20T05:24:41.136Z,99.90
2017-09-20T05:27:08.643Z,99.90
2017-09-20T05:29:36.172Z,99.90
2017-09-20T05:32:03.679Z,99.90
2017-09-20T05:34:31.975Z,99.90
2017-09-20T05:36:59.483Z,99.90
2017-09-20T05:39:27.095Z,99.90
2017-09-20T05:41:54.603Z,99.90
2017-09-20T05:44:22.955Z,99.90
2017-09-20T05:46:50.459Z,99.90
2017-09-20T05:49:18.003Z,99.90
2017-09-20T05:51:45.616Z,99.90
2017-09-20T05:54:13.127Z,99.90
2017-09-20T05:56:41.546Z,99.90
2017-09-20T05:59:09.058Z,99.90
2017-09-20T06:01:36.579Z,99.90
2017-09-20T06:04:04.108Z,99.90
2017-09-20T06:06:32.400Z,99.90
2017-09-20T06:08:59.907Z,99.90
2017-09-20T06:11:28.167Z,99.90
2017-09-20T06:13:55.684Z,99.90
2017-09-20T06:16:23.207Z,99.90
2017-09-20T06:18:50.715Z,99.90
2017-09-20T06:21:19.091Z,99.90
2017-09-20T06:23:46.599Z,99.90
2017-09-20T06:26:14.119Z,99.90
2017-09-20T06:28:41.635Z,99.90
2017-09-20T06:31:09.923Z,99.90
2017-09-20T06:33:37.427Z,99.90
2017-09-20T06:36:04.952Z,99.90
2017-09-20T06:38:32.563Z,99.90
2017-09-20T06:41:00.089Z,99.90
2017-09-20T06:43:27.595Z,99.90
2017-09-20T06:45:55.899Z,99.90
2017-09-20T06:48:24.138Z,99.90
2017-09-20T06:50:51.763Z,99.90
2017-09-20T06:53:19.294Z,99.90
2017-09-20T06:55:46.857Z,99.90
2017-09-20T06:58:14.379Z,99.90
2017-09-20T07:00:44.559Z,99.90
2017-09-20T07:03:12.188Z,99.90
2017-09-20T07:05:39.699Z,99.90
2017-09-20T07:08:07.222Z,99.90
2017-09-20T07:10:34.771Z,99.90
2017-09-20T07:13:02.305Z,99.90
2017-09-20T07:15:29.824Z,99.60
2017-09-20T07:17:57.351Z,99.60
2017-09-20T07:20:25.831Z,99.80
2017-09-20T07:22:53.359Z,99.20
2017-09-20T07:25:21.635Z,99.30
2017-09-20T07:27:49.927Z,98.10
2017-09-20T07:30:17.435Z,98.10
2017-09-20T07:32:45.782Z,97.50
2017-09-20T07:35:13.295Z,97.80
2017-09-20T07:37:41.591Z,96.80
2017-09-20T07:40:09.824Z,96.80
2017-09-20T07:42:37.368Z,97.00
2017-09-20T07:45:04.884Z,96.60
2017-09-20T07:47:32.455Z,96.40
2017-09-20T07:49:59.974Z,96.70
2017-09-20T07:52:27.482Z,96.60
2017-09-20T07:54:55.851Z,96.30
2017-09-20T07:57:23.399Z,96.00
2017-09-20T07:59:50.923Z,95.70
2017-09-20T08:02:18.426Z,96.80
2017-09-20T08:04:45.951Z,96.70
2017-09-20T08:07:14.223Z,96.20
2017-09-20T08:09:42.507Z,96.30
2017-09-20T08:12:10.782Z,95.80
2017-09-20T08:14:39.062Z,96.00
2017-09-20T08:17:07.353Z,96.70
2017-09-20T08:19:34.875Z,96.70
2017-09-20T08:22:02.382Z,96.60
2017-09-20T08:24:29.921Z,94.90
2017-09-20T08:26:57.487Z,95.20
2017-09-20T08:29:25.003Z,95.40
2017-09-20T08:31:52.519Z,95.10
2017-09-20T08:34:20.018Z,94.40
2017-09-20T08:36:47.542Z,94.20
2017-09-20T08:39:15.047Z,94.50
2017-09-20T08:41:43.330Z,94.80
2017-09-20T08:44:11.628Z,94.20
2017-09-20T08:46:40.006Z,94.10
2017-09-20T08:49:07.513Z,94.10
2017-09-20T08:51:35.874Z,94.40
2017-09-20T08:54:03.407Z,93.90
2017-09-20T08:56:30.931Z,94.20
2017-09-20T08:58:59.242Z,94.20
2017-09-20T09:01:26.759Z,94.20
2017-09-20T09:03:54.263Z,95.20
2017-09-20T09:06:21.787Z,94.70
2017-09-20T09:08:50.059Z,94.80
2017-09-20T09:11:18.343Z,93.90
2017-09-20T09:13:46.610Z,94.60
2017-09-20T09:16:14.898Z,95.00
2017-09-20T09:18:43.175Z,95.60
2017-09-20T09:21:11.462Z,95.50
2017-09-20T09:23:38.966Z,95.40
2017-09-20T09:26:06.487Z,94.80
2017-09-20T09:28:33.991Z,94.40
2017-09-20T09:31:01.535Z,94.30
2017-09-20T09:33:29.054Z,93.90
2017-09-20T09:35:56.667Z,93.30
2017-09-20T09:38:24.191Z,92.60
2017-09-20T09:40:51.730Z,93.10
2017-09-20T09:43:19.246Z,93.50
2017-09-20T09:45:46.762Z,92.70
2017-09-20T09:48:14.302Z,92.10
2017-09-20T09:50:42.531Z,93.70
2017-09-20T09:53:10.051Z,93.40
2017-09-20T09:55:37.563Z,91.70
2017-09-20T09:58:05.091Z,91.20
2017-09-20T10:00:32.596Z,91.70
2017-09-20T10:03:00.888Z,91.50
2017-09-20T10:05:28.403Z,91.50
2017-09-20T10:07:56.751Z,91.10
2017-09-20T10:10:24.251Z,91.30
2017-09-20T10:12:51.783Z,91.70
2017-09-20T10:15:19.304Z,90.40
2017-09-20T10:17:46.947Z,90.00
2017-09-20T10:20:15.223Z,89.40
2017-09-20T10:22:43.507Z,89.00
2017-09-20T10:25:11.070Z,89.00
2017-09-20T10:27:38.579Z,91.00
2017-09-20T10:30:06.191Z,91.20
2017-09-20T10:32:33.801Z,91.30
2017-09-20T10:35:02.031Z,91.60
2017-09-20T10:37:29.542Z,91.90
2017-09-20T10:39:57.068Z,92.60
2017-09-20T10:42:24.579Z,90.90
2017-09-20T10:44:52.863Z,90.50
2017-09-20T10:47:20.367Z,90.40
2017-09-20T10:49:47.891Z,89.30
2017-09-20T10:52:15.400Z,88.40
2017-09-20T10:54:42.923Z,90.60
2017-09-20T10:57:10.429Z,88.80
2017-09-20T10:59:37.958Z,89.80
2017-09-20T11:02:05.472Z,87.80
2017-09-20T11:04:33.039Z,83.50
2017-09-20T11:07:00.566Z,85.90
2017-09-20T11:09:28.842Z,86.90
2017-09-20T11:11:57.260Z,88.00
2017-09-20T11:14:24.817Z,87.80
2017-09-20T11:16:52.342Z,89.30
2017-09-20T11:19:20.618Z,90.40
2017-09-20T11:21:48.918Z,90.60
2017-09-20T11:24:16.422Z,90.60
2017-09-20T11:26:43.943Z,91.00
2017-09-20T11:29:11.464Z,89.70
2017-09-20T11:31:39.751Z,88.60
2017-09-20T11:34:08.019Z,88.30
2017-09-20T11:36:36.307Z,88.20
2017-09-20T11:39:04.605Z,88.90
2017-09-20T11:41:32.155Z,89.00
2017-09-20T11:43:59.667Z,89.80
2017-09-20T11:46:27.191Z,87.80
2017-09-20T11:48:54.686Z,89.30
2017-09-20T11:51:22.362Z,90.00
2017-09-20T11:53:50.672Z,87.40
2017-09-20T11:56:18.176Z,87.20
2017-09-20T11:58:45.797Z,86.80
2017-09-20T12:01:13.343Z,90.20
2017-09-20T12:03:40.871Z,87.70
2017-09-20T12:06:08.455Z,85.50
2017-09-20T12:08:35.971Z,86.50
2017-09-20T12:11:03.466Z,87.20
2017-09-20T12:13:31.747Z,82.90
2017-09-20T12:15:59.750Z,82.90
2017-09-20T12:18:27.270Z,81.60
2017-09-20T12:20:55.531Z,83.10
2017-09-20T12:23:23.828Z,82.40
2017-09-20T12:25:51.331Z,82.40
2017-09-20T12:28:18.851Z,83.60
2017-09-20T12:30:46.351Z,84.00
2017-09-20T12:33:13.875Z,83.00
2017-09-20T12:35:41.382Z,83.10
2017-09-20T12:38:08.978Z,83.80
2017-09-20T12:40:36.486Z,83.80
2017-09-20T12:43:04.103Z,83.40
2017-09-20T12:45:31.611Z,82.50
2017-09-20T12:47:59.214Z,82.10
2017-09-20T12:50:26.718Z,84.20
2017-09-20T12:52:54.246Z,85.00
2017-09-20T12:55:21.755Z,83.80
2017-09-20T12:57:49.360Z,83.90
2017-09-20T13:00:16.883Z,84.80
2017-09-20T13:02:45.183Z,85.10
2017-09-20T13:05:12.708Z,85.10
2017-09-20T13:07:40.303Z,86.90
2017-09-20T13:10:08.448Z,85.30
2017-09-20T13:12:36.714Z,87.30
2017-09-20T13:15:04.239Z,87.20
2017-09-20T13:17:31.747Z,86.40
2017-09-20T13:20:00.038Z,86.80
2017-09-20T13:22:27.703Z,86.80
2017-09-20T13:24:55.839Z,87.30
2017-09-20T13:27:23.355Z,86.30
2017-09-20T13:29:50.975Z,87.20
2017-09-20T13:32:19.375Z,86.70
2017-09-20T13:34:46.932Z,86.70
2017-09-20T13:37:14.442Z,86.30
2017-09-20T13:39:41.975Z,87.40
2017-09-20T13:42:09.479Z,87.40
2017-09-20T13:44:37.771Z,88.00
2017-09-20T13:47:06.038Z,88.80
2017-09-20T13:49:34.342Z,86.00
2017-09-20T13:52:01.847Z,86.00
2017-09-20T13:54:30.240Z,86.60
2017-09-20T13:56:58.515Z,89.30
2017-09-20T13:59:27.195Z,87.80
2017-09-20T14:01:54.724Z,87.80
2017-09-20T14:04:22.230Z,86.90
2017-09-20T14:06:50.523Z,84.80
2017-09-20T14:09:18.030Z,84.70
2017-09-20T14:11:45.555Z,85.50
2017-09-20T14:14:13.067Z,84.40
2017-09-20T14:16:40.663Z,87.40
2017-09-20T14:19:09.814Z,84.20
2017-09-20T14:21:37.338Z,80.60
2017-09-20T14:24:04.843Z,81.10
2017-09-20T14:26:33.126Z,83.80
2017-09-20T14:29:01.399Z,84.00
2017-09-20T14:31:29.694Z,85.30
2017-09-20T14:33:57.400Z,85.20
2017-09-20T14:36:25.018Z,85.80
2017-09-20T14:38:52.523Z,87.90
2017-09-20T14:41:20.063Z,87.90
2017-09-20T14:43:47.679Z,89.00
2017-09-20T14:46:15.955Z,87.70
2017-09-20T14:48:44.242Z,88.10
2017-09-20T14:51:11.746Z,88.10
2017-09-20T14:53:39.367Z,90.00
2017-09-20T14:56:06.874Z,87.90
2017-09-20T14:58:37.551Z,85.20
2017-09-20T15:01:05.057Z,87.20
2017-09-20T15:03:32.671Z,86.00
2017-09-20T15:06:00.187Z,85.50
2017-09-20T15:08:27.714Z,85.90
2017-09-20T15:10:55.214Z,87.20
2017-09-20T15:13:22.743Z,88.10
2017-09-20T15:15:50.255Z,86.10
2017-09-20T15:18:18.539Z,85.80
2017-09-20T15:20:46.046Z,85.80
2017-09-20T15:23:13.653Z,84.70
2017-09-20T15:25:41.375Z,84.70
2017-09-20T15:28:08.894Z,85.70
2017-09-20T15:30:36.401Z,86.90
2017-09-20T15:33:03.926Z,82.30
2017-09-20T15:35:31.451Z,82.80
2017-09-20T15:37:59.006Z,81.20
2017-09-20T15:40:26.526Z,78.80
2017-09-20T15:42:54.131Z,73.30
2017-09-20T15:45:21.654Z,70.20
2017-09-20T15:47:49.163Z,65.30
2017-09-20T15:50:16.682Z,65.90
2017-09-20T15:52:44.946Z,73.70
2017-09-20T15:55:12.477Z,73.60
2017-09-20T15:57:39.981Z,75.90
2017-09-20T16:00:08.370Z,80.10
2017-09-20T16:02:35.866Z,80.10
2017-09-20T16:05:03.381Z,81.70
2017-09-20T16:07:31.650Z,82.10
2017-09-20T16:09:59.948Z,82.40
2017-09-20T16:12:27.453Z,82.30
2017-09-20T16:14:54.974Z,84.50
2017-09-20T16:17:22.484Z,85.40
2017-09-20T16:19:50.016Z,86.70
2017-09-20T16:22:17.538Z,86.80
2017-09-20T16:24:45.062Z,87.30
2017-09-20T16:27:13.346Z,90.00
2017-09-20T16:29:41.630Z,90.50
2017-09-20T16:32:09.903Z,91.00
2017-09-20T16:34:38.208Z,91.40
2017-09-20T16:37:05.859Z,91.40
2017-09-20T16:39:33.382Z,91.80
2017-09-20T16:42:01.660Z,92.50
2017-09-20T16:44:29.950Z,92.90
2017-09-20T16:46:58.227Z,92.30
2017-09-20T16:49:26.524Z,92.40
2017-09-20T16:51:54.035Z,92.40
2017-09-20T16:54:21.552Z,92.90
2017-09-20T16:56:49.080Z,93.20
2017-09-20T16:59:17.354Z,93.40
2017-09-20T17:01:45.647Z,93.60
2017-09-20T17:04:13.203Z,93.60
2017-09-20T17:06:40.763Z,93.60
2017-09-20T17:09:08.271Z,93.90
2017-09-20T17:11:35.871Z,94.10
2017-09-20T17:14:03.391Z,94.20
2017-09-20T17:16:30.914Z,94.40
2017-09-20T17:18:58.414Z,94.60
2017-09-20T17:21:25.935Z,94.90
2017-09-20T17:23:53.559Z,95.20
2017-09-20T17:26:21.851Z,95.60
2017-09-20T17:28:49.407Z,95.60
2017-09-20T17:31:16.927Z,95.80
2017-09-20T17:33:44.436Z,96.00
2017-09-20T17:36:11.958Z,96.20
2017-09-20T17:38:40.227Z,96.40
2017-09-20T17:41:07.767Z,96.30
2017-09-20T17:43:35.270Z,96.40
2017-09-20T17:46:02.774Z,96.40
2017-09-20T17:48:30.299Z,96.60
2017-09-20T17:50:57.811Z,96.70
2017-09-20T17:53:25.426Z,96.80
2017-09-20T17:55:52.932Z,96.90
2017-09-20T17:58:21.302Z,97.60
2017-09-20T18:00:48.890Z,97.20
2017-09-20T18:03:17.174Z,97.40
2017-09-20T18:05:44.683Z,97.40
2017-09-20T18:08:12.295Z,97.60
2017-09-20T18:10:39.807Z,97.60
2017-09-20T18:13:07.326Z,97.70
2017-09-20T18:15:35.658Z,97.70
2017-09-20T18:18:03.235Z,97.90
2017-09-20T18:20:32.231Z,98.10
2017-09-20T18:22:59.755Z,98.10
2017-09-20T18:25:27.269Z,98.20
2017-09-20T18:27:54.791Z,98.30
2017-09-20T18:30:23.067Z,98.40
2017-09-20T18:32:51.380Z,98.50
2017-09-20T18:35:18.979Z,98.40
2017-09-20T18:37:46.496Z,98.50
2017-09-20T18:40:14.026Z,98.60
2017-09-20T18:42:42.298Z,98.80
2017-09-20T18:45:10.588Z,98.90
2017-09-20T18:47:38.094Z,98.90
2017-09-20T18:50:05.966Z,99.00
2017-09-20T18:52:33.518Z,99.00
2017-09-20T18:55:01.035Z,99.00
2017-09-20T18:57:28.542Z,99.10
2017-09-20T18:59:56.162Z,99.00
2017-09-20T19:02:23.671Z,99.00
2017-09-20T19:04:51.195Z,99.00
2017-09-20T19:07:18.702Z,99.30
2017-09-20T19:09:46.991Z,99.40
2017-09-20T19:12:14.529Z,99.30
2017-09-20T19:14:42.065Z,99.50
2017-09-20T19:17:09.579Z,99.40
2017-09-20T19:19:37.154Z,99.70
2017-09-20T19:22:04.663Z,99.60
2017-09-20T19:24:32.195Z,99.60
2017-09-20T19:27:00.479Z,99.60
2017-09-20T19:29:28.018Z,99.70
2017-09-20T19:31:55.523Z,99.80
2017-09-20T19:34:23.823Z,99.70
2017-09-20T19:36:51.355Z,99.70
2017-09-20T19:39:19.633Z,99.60
2017-09-20T19:41:47.927Z,99.80
2017-09-20T19:44:15.546Z,99.90
2017-09-20T19:46:43.076Z,99.90
2017-09-20T19:49:10.634Z,99.90
2017-09-20T19:51:38.163Z,99.90
2017-09-20T19:54:05.675Z,99.90
2017-09-20T19:56:33.203Z,99.90
2017-09-20T19:59:00.835Z,99.90
2017-09-20T20:01:29.743Z,99.90
2017-09-20T20:03:57.246Z,99.90
2017-09-20T20:06:24.823Z,99.90
2017-09-20T20:08:53.178Z,99.90
2017-09-20T20:11:21.240Z,99.90
2017-09-20T20:13:49.106Z,99.90
2017-09-20T20:16:17.075Z,99.90
2017-09-20T20:18:44.941Z,99.90
2017-09-20T20:21:12.807Z,99.90
2017-09-20T20:23:40.571Z,99.90
2017-09-20T20:26:08.335Z,99.90
2017-09-20T20:28:35.917Z,99.90
2017-09-20T20:31:03.469Z,99.90
2017-09-20T20:33:31.421Z,99.90
2017-09-20T20:35:59.185Z,99.90
2017-09-20T20:38:26.765Z,99.90
2017-09-20T20:40:54.610Z,99.90
2017-09-20T20:43:22.195Z,99.90
2017-09-20T20:45:51.469Z,99.90
2017-09-20T20:48:19.334Z,99.90
2017-09-20T20:50:47.099Z,99.90
2017-09-20T20:53:14.869Z,99.90
2017-09-20T20:55:42.729Z,99.90
2017-09-20T20:58:10.601Z,99.90
2017-09-20T21:00:38.162Z,99.90
2017-09-20T21:03:05.735Z,99.90
2017-09-20T21:05:33.293Z,99.90
2017-09-20T21:08:01.902Z,99.90
2017-09-20T21:10:30.870Z,99.90
2017-09-20T21:12:58.514Z,99.90
2017-09-20T21:15:26.106Z,99.90
2017-09-20T21:17:53.641Z,99.90
2017-09-20T21:20:21.143Z,99.90
2017-09-20T21:22:48.654Z,99.90
2017-09-20T21:25:16.334Z,99.90
2017-09-20T21:27:44.888Z,99.90
2017-09-20T21:30:12.462Z,99.90
2017-09-20T21:32:39.967Z,99.90
2017-09-20T21:35:07.500Z,99.90
2017-09-20T21:37:35.854Z,99.90
2017-09-20T21:40:03.383Z,99.90
2017-09-20T21:42:30.928Z,99.90
2017-09-20T21:44:59.271Z,99.90
2017-09-20T21:47:27.547Z,99.90
2017-09-20T21:49:56.009Z,99.90
2017-09-20T21:52:23.571Z,99.90
2017-09-20T21:54:51.090Z,99.90
2017-09-20T21:57:18.598Z,99.90
2017-09-20T21:59:46.891Z,99.90
2017-09-20T22:02:14.407Z,99.90
2017-09-20T22:04:42.042Z,99.90
2017-09-20T22:07:10.298Z,99.90
2017-09-20T22:09:37.818Z,99.90
2017-09-20T22:12:05.415Z,99.90
2017-09-20T22:14:33.894Z,99.90
2017-09-20T22:17:13.111Z,99.90
2017-09-20T22:19:53.236Z,99.90
2017-09-20T22:22:32.572Z,99.90
2017-09-20T22:25:11.990Z,99.90
2017-09-20T22:27:39.510Z,99.90
2017-09-20T22:30:07.018Z,99.90
2017-09-20T22:32:34.552Z,99.90
2017-09-20T22:35:02.059Z,99.90
2017-09-20T22:37:30.346Z,99.90
2017-09-20T22:39:58.610Z,99.90
2017-09-20T22:42:26.907Z,99.90
2017-09-20T22:44:54.415Z,99.90
2017-09-20T22:47:22.795Z,99.90
2017-09-20T22:49:50.302Z,99.90
2017-09-20T22:52:17.831Z,99.90
2017-09-20T22:54:45.338Z,99.90
2017-09-20T22:57:12.858Z,99.90
2017-09-20T22:59:41.491Z,99.90
2017-09-20T23:02:09.020Z,99.90
2017-09-20T23:04:36.583Z,99.90
2017-09-20T23:07:04.122Z,99.90
2017-09-20T23:09:32.394Z,99.90
2017-09-20T23:12:00.672Z,99.90
2017-09-20T23:14:28.962Z,99.90
2017-09-20T23:16:56.462Z,99.90
2017-09-20T23:19:23.982Z,99.90
2017-09-20T23:21:51.555Z,99.90
2017-09-20T23:24:19.087Z,99.90
2017-09-20T23:26:47.488Z,99.90
2017-09-20T23:29:15.011Z,99.90
2017-09-20T23:31:43.283Z,99.90
2017-09-20T23:34:11.570Z,99.90
2017-09-20T23:36:39.842Z,99.90
2017-09-20T23:39:08.134Z,99.90
2017-09-20T23:41:35.639Z,99.90
2017-09-20T23:44:03.268Z,99.90
2017-09-20T23:46:30.867Z,99.90
2017-09-20T23:48:58.484Z,99.90
2017-09-20T23:51:25.991Z,99.90
2017-09-20T23:53:54.003Z,99.90
2017-09-20T23:56:21.502Z,99.90
2017-09-20T23:58:49.006Z,99.90
